createdAt,value
2023-02-27T00:00:38.254Z,14
2023-02-27T00:01:45.267Z,15
2023-02-27T00:02:52.717Z,15
2023-02-27T00:04:00.111Z,14
2023-02-27T00:05:06.898Z,15
2023-02-27T00:06:13.809Z,15
2023-02-27T00:07:20.671Z,15
2023-02-27T00:08:27.667Z,13
2023-02-27T00:09:34.560Z,15
2023-02-27T00:10:41.594Z,13
2023-02-27T00:11:48.483Z,13
2023-02-27T00:12:55.618Z,15
2023-02-27T00:14:02.787Z,12
2023-02-27T00:15:09.734Z,12
2023-02-27T00:16:16.788Z,12
2023-02-27T00:17:28.426Z,13
2023-02-27T00:18:35.379Z,14
2023-02-27T00:19:42.296Z,15
2023-02-27T00:20:49.234Z,14
2023-02-27T00:21:59.931Z,13
2023-02-27T00:23:07.002Z,13
2023-02-27T00:24:17.178Z,14
2023-02-27T00:25:24.427Z,14
2023-02-27T00:26:31.324Z,13
2023-02-27T00:27:40.200Z,14
2023-02-27T00:28:47.052Z,13
2023-02-27T00:29:54.018Z,12
2023-02-27T00:31:01.089Z,13
2023-02-27T00:32:08.083Z,15
2023-02-27T00:33:14.921Z,11
2023-02-27T00:34:22.981Z,12
2023-02-27T00:35:30.933Z,12
2023-02-27T00:36:39.841Z,12
2023-02-27T00:37:48.097Z,14
2023-02-27T00:38:55.062Z,13
2023-02-27T00:40:01.933Z,17
2023-02-27T00:41:09.185Z,13
2023-02-27T00:42:16.787Z,15
2023-02-27T00:43:23.646Z,14
2023-02-27T00:44:32.321Z,16
2023-02-27T00:45:40.375Z,11
2023-02-27T00:46:47.291Z,12
2023-02-27T00:47:54.263Z,11
2023-02-27T00:49:01.127Z,11
2023-02-27T00:50:09.016Z,11
2023-02-27T00:51:15.932Z,13
2023-02-27T00:52:24.377Z,13
2023-02-27T00:53:31.200Z,13
2023-02-27T00:54:39.084Z,11
2023-02-27T00:55:46.170Z,12
2023-02-27T00:56:57.317Z,13
2023-02-27T00:58:04.383Z,12
2023-02-27T00:59:12.675Z,11
2023-02-27T01:00:19.633Z,11
2023-02-27T01:01:26.798Z,11
2023-02-27T01:02:33.684Z,13
2023-02-27T01:03:40.550Z,13
2023-02-27T01:04:48.296Z,10
2023-02-27T01:05:55.406Z,12
2023-02-27T01:07:02.308Z,12
2023-02-27T01:08:12.098Z,12
2023-02-27T01:09:18.977Z,12
2023-02-27T01:10:27.735Z,12
2023-02-27T01:11:34.727Z,13
2023-02-27T01:12:42.432Z,14
2023-02-27T01:13:51.043Z,12
2023-02-27T01:14:58.263Z,14
2023-02-27T01:16:05.139Z,12
2023-02-27T01:17:11.971Z,12
2023-02-27T01:18:18.943Z,14
2023-02-27T01:19:25.920Z,12
2023-02-27T01:20:33.396Z,12
2023-02-27T01:21:40.333Z,14
2023-02-27T01:22:49.055Z,12
2023-02-27T01:23:55.955Z,12
2023-02-27T01:25:05.810Z,13
2023-02-27T01:26:13.987Z,12
2023-02-27T01:27:20.864Z,12
2023-02-27T01:28:27.948Z,12
2023-02-27T01:29:35.230Z,12
2023-02-27T01:30:42.252Z,13
2023-02-27T01:31:51.879Z,12
2023-02-27T01:32:58.804Z,10
2023-02-27T01:34:05.817Z,12
2023-02-27T01:35:13.096Z,12
2023-02-27T01:36:19.963Z,11
2023-02-27T01:37:26.858Z,12
2023-02-27T01:38:34.047Z,12
2023-02-27T01:39:40.893Z,12
2023-02-27T01:40:47.888Z,11
2023-02-27T01:41:54.821Z,10
2023-02-27T01:43:01.787Z,11
2023-02-27T01:44:09.364Z,10
2023-02-27T01:45:16.376Z,10
2023-02-27T01:46:30.565Z,10
2023-02-27T01:47:37.813Z,11
2023-02-27T01:48:44.719Z,10
2023-02-27T01:49:54.232Z,10
2023-02-27T01:51:05.155Z,11
2023-02-27T01:52:12.496Z,11
2023-02-27T01:53:19.527Z,13
2023-02-27T01:54:30.755Z,11
2023-02-27T01:55:42.671Z,11
2023-02-27T01:56:49.671Z,13
2023-02-27T01:57:56.620Z,12
2023-02-27T01:59:03.553Z,12
2023-02-27T02:00:10.472Z,13
2023-02-27T02:01:20.328Z,12
2023-02-27T02:02:27.143Z,11
2023-02-27T02:03:37.714Z,10
2023-02-27T02:04:49.703Z,12
2023-02-27T02:05:58.773Z,11
2023-02-27T02:07:05.684Z,12
2023-02-27T02:08:12.592Z,11
2023-02-27T02:09:19.849Z,11
2023-02-27T02:10:27.047Z,11
2023-02-27T02:11:33.991Z,11
2023-02-27T02:12:43.708Z,10
2023-02-27T02:13:50.575Z,10
2023-02-27T02:14:57.456Z,11
2023-02-27T02:16:08.755Z,10
2023-02-27T02:17:25.900Z,11
2023-02-27T02:18:40.208Z,11
2023-02-27T02:19:52.258Z,10
2023-02-27T02:21:07.230Z,11
2023-02-27T02:22:29.894Z,11
2023-02-27T02:23:41.913Z,12
2023-02-27T02:24:51.665Z,11
2023-02-27T02:25:58.737Z,9
2023-02-27T02:27:10.778Z,11
2023-02-27T02:28:22.754Z,9
2023-02-27T02:29:40.072Z,11
2023-02-27T02:30:57.239Z,11
2023-02-27T02:32:15.954Z,10
2023-02-27T02:33:30.835Z,10
2023-02-27T02:34:42.819Z,11
2023-02-27T02:35:54.738Z,12
2023-02-27T02:37:06.750Z,13
2023-02-27T02:38:24.426Z,12
2023-02-27T02:39:41.554Z,11
2023-02-27T02:40:53.468Z,11
2023-02-27T02:42:05.488Z,11
2023-02-27T02:43:18.935Z,10
2023-02-27T02:44:31.123Z,11
2023-02-27T02:45:43.200Z,10
2023-02-27T02:46:52.956Z,12
2023-02-27T02:48:07.656Z,10
2023-02-27T02:49:24.768Z,12
2023-02-27T02:50:41.859Z,11
2023-02-27T02:51:59.168Z,12
2023-02-27T02:53:13.818Z,14
2023-02-27T02:54:30.920Z,11
2023-02-27T02:55:48.029Z,10
2023-02-27T02:56:57.574Z,13
2023-02-27T02:58:12.281Z,13
2023-02-27T02:59:26.968Z,12
2023-02-27T03:00:38.992Z,13
2023-02-27T03:01:45.918Z,12
2023-02-27T03:03:03.370Z,13
2023-02-27T03:04:16.569Z,12
2023-02-27T03:05:28.511Z,11
2023-02-27T03:06:35.983Z,11
2023-02-27T03:07:48.316Z,12
2023-02-27T03:09:00.796Z,12
2023-02-27T03:10:15.848Z,12
2023-02-27T03:11:22.822Z,11
2023-02-27T03:12:30.599Z,12
2023-02-27T03:13:37.539Z,13
2023-02-27T03:14:49.424Z,12
2023-02-27T03:16:07.340Z,12
2023-02-27T03:17:17.292Z,13
2023-02-27T03:18:24.251Z,13
2023-02-27T03:19:33.889Z,15
2023-02-27T03:20:40.773Z,13
2023-02-27T03:21:50.319Z,11
2023-02-27T03:23:02.349Z,13
2023-02-27T03:24:12.321Z,11
2023-02-27T03:25:24.244Z,11
2023-02-27T03:26:31.287Z,11
2023-02-27T03:27:38.246Z,12
2023-02-27T03:28:47.904Z,11
2023-02-27T03:29:57.758Z,11
2023-02-27T03:31:10.456Z,11
2023-02-27T03:32:21.203Z,10
2023-02-27T03:33:33.996Z,11
2023-02-27T03:34:40.939Z,11
2023-02-27T03:35:47.911Z,11
2023-02-27T03:36:57.904Z,9
2023-02-27T03:38:12.293Z,11
2023-02-27T03:39:24.353Z,10
2023-02-27T03:40:34.392Z,10
2023-02-27T03:41:42.931Z,10
2023-02-27T03:42:55.629Z,14
2023-02-27T03:44:05.717Z,11
2023-02-27T03:45:15.644Z,12
2023-02-27T03:46:25.289Z,10
2023-02-27T03:47:32.196Z,10
2023-02-27T03:48:39.068Z,11
2023-02-27T03:49:49.719Z,9
2023-02-27T03:50:57.425Z,10
2023-02-27T03:52:04.431Z,10
2023-02-27T03:53:11.616Z,9
2023-02-27T03:54:28.980Z,9
2023-02-27T03:55:36.829Z,8
2023-02-27T03:56:43.713Z,9
2023-02-27T03:57:52.126Z,8
2023-02-27T03:58:59.624Z,8
2023-02-27T04:00:06.708Z,8
2023-02-27T04:01:13.832Z,8
2023-02-27T04:02:23.576Z,9
2023-02-27T04:03:30.628Z,8
2023-02-27T04:04:37.528Z,8
2023-02-27T04:05:47.093Z,7
2023-02-27T04:06:54.365Z,9
2023-02-27T04:08:06.278Z,8
2023-02-27T04:09:21.605Z,9
2023-02-27T04:10:33.568Z,8
2023-02-27T04:11:48.572Z,7
2023-02-27T04:13:05.717Z,8
2023-02-27T04:14:22.749Z,7
2023-02-27T04:15:33.339Z,8
2023-02-27T04:16:41.782Z,10
2023-02-27T04:17:56.153Z,7
2023-02-27T04:19:08.242Z,6
2023-02-27T04:20:18.021Z,8
2023-02-27T04:21:37.044Z,8
2023-02-27T04:22:51.988Z,8
2023-02-27T04:24:03.113Z,8
2023-02-27T04:25:19.975Z,9
2023-02-27T04:26:34.801Z,8
2023-02-27T04:27:54.429Z,7
2023-02-27T04:29:08.026Z,7
2023-02-27T04:30:23.647Z,8
2023-02-27T04:31:35.817Z,7
2023-02-27T04:32:55.891Z,6
2023-02-27T04:34:10.828Z,7
2023-02-27T04:35:28.190Z,8
2023-02-27T04:36:35.066Z,7
2023-02-27T04:37:44.692Z,7
2023-02-27T04:38:51.699Z,7
2023-02-27T04:40:04.167Z,8
2023-02-27T04:41:16.682Z,8
2023-02-27T04:42:26.266Z,9
2023-02-27T04:43:33.169Z,10
2023-02-27T04:44:40.241Z,11
2023-02-27T04:45:47.996Z,9
2023-02-27T04:46:56.466Z,9
2023-02-27T04:48:03.518Z,8
2023-02-27T04:49:10.369Z,7
2023-02-27T04:50:25.511Z,7
2023-02-27T04:51:37.913Z,8
2023-02-27T04:52:49.904Z,8
2023-02-27T04:54:01.888Z,8
2023-02-27T04:55:13.650Z,8
2023-02-27T04:56:21.104Z,9
2023-02-27T04:57:28.137Z,8
2023-02-27T04:58:37.565Z,9
2023-02-27T04:59:44.441Z,9
2023-02-27T05:00:51.692Z,9
2023-02-27T05:01:58.713Z,9
2023-02-27T05:03:06.387Z,8
2023-02-27T05:04:13.399Z,9
2023-02-27T05:05:20.256Z,8
2023-02-27T05:06:27.120Z,8
2023-02-27T05:07:37.591Z,9
2023-02-27T05:08:44.465Z,9
2023-02-27T05:09:56.403Z,9
2023-02-27T05:11:06.350Z,9
2023-02-27T05:12:18.302Z,9
2023-02-27T05:13:35.390Z,10
2023-02-27T05:14:48.411Z,10
2023-02-27T05:15:55.356Z,11
2023-02-27T05:17:07.336Z,8
2023-02-27T05:18:22.713Z,10
2023-02-27T05:19:30.197Z,9
2023-02-27T05:20:40.081Z,9
2023-02-27T05:21:54.650Z,10
2023-02-27T05:23:06.658Z,8
2023-02-27T05:24:13.496Z,9
2023-02-27T05:25:31.277Z,10
2023-02-27T05:26:40.435Z,10
2023-02-27T05:27:55.254Z,9
2023-02-27T05:29:04.990Z,10
2023-02-27T05:30:20.871Z,10
2023-02-27T05:31:35.946Z,10
2023-02-27T05:32:47.946Z,9
2023-02-27T05:33:57.705Z,10
2023-02-27T05:35:07.323Z,9
2023-02-27T05:36:19.400Z,9
2023-02-27T05:37:31.326Z,11
2023-02-27T05:38:48.354Z,10
2023-02-27T05:39:55.444Z,13
2023-02-27T05:41:02.293Z,12
2023-02-27T05:42:14.287Z,11
2023-02-27T05:43:21.186Z,14
2023-02-27T05:44:28.196Z,12
2023-02-27T05:45:41.286Z,14
2023-02-27T05:46:48.106Z,12
2023-02-27T05:48:02.761Z,14
2023-02-27T05:49:14.721Z,12
2023-02-27T05:50:21.585Z,15
2023-02-27T05:51:30.415Z,11
2023-02-27T05:52:37.301Z,10
2023-02-27T05:53:46.106Z,11
2023-02-27T05:54:55.682Z,9
2023-02-27T05:56:07.892Z,10
2023-02-27T05:57:17.280Z,9
2023-02-27T05:58:27.048Z,10
2023-02-27T05:59:39.227Z,9
2023-02-27T06:00:49.873Z,11
2023-02-27T06:01:56.885Z,11
2023-02-27T06:03:03.720Z,12
2023-02-27T06:04:10.561Z,13
2023-02-27T06:05:17.468Z,10
2023-02-27T06:06:24.340Z,12
2023-02-27T06:07:31.227Z,12
2023-02-27T06:08:38.082Z,11
2023-02-27T06:09:44.975Z,12
2023-02-27T06:10:51.858Z,14
2023-02-27T06:11:58.665Z,13
2023-02-27T06:13:05.612Z,14
2023-02-27T06:14:15.359Z,15
2023-02-27T06:15:23.958Z,15
2023-02-27T06:16:34.784Z,15
2023-02-27T06:17:42.603Z,14
2023-02-27T06:18:53.938Z,16
2023-02-27T06:20:01.835Z,17
2023-02-27T06:21:11.924Z,29
2023-02-27T06:22:18.818Z,31
2023-02-27T06:23:27.588Z,39
2023-02-27T06:24:34.407Z,46
2023-02-27T06:25:41.245Z,42
2023-02-27T06:26:48.959Z,38
2023-02-27T06:27:55.855Z,31
2023-02-27T06:29:02.674Z,32
2023-02-27T06:30:09.556Z,28
2023-02-27T06:31:19.439Z,31
2023-02-27T06:32:26.263Z,32
2023-02-27T06:33:33.113Z,33
2023-02-27T06:34:40.014Z,31
2023-02-27T06:35:49.908Z,26
2023-02-27T06:36:56.643Z,29
2023-02-27T06:38:03.562Z,28
2023-02-27T06:39:12.453Z,25
2023-02-27T06:40:19.275Z,27
2023-02-27T06:41:26.174Z,23
2023-02-27T06:42:33.863Z,20
2023-02-27T06:43:43.763Z,20
2023-02-27T06:44:50.729Z,18
2023-02-27T06:45:57.579Z,16
2023-02-27T06:47:04.376Z,24
2023-02-27T06:48:11.223Z,21
2023-02-27T06:49:18.112Z,16
2023-02-27T06:50:26.016Z,14
2023-02-27T06:51:33.607Z,15
2023-02-27T06:52:40.347Z,15
2023-02-27T06:53:47.150Z,12
2023-02-27T06:54:54.018Z,12
2023-02-27T06:56:00.947Z,14
2023-02-27T06:57:08.079Z,13
2023-02-27T06:58:14.976Z,14
2023-02-27T06:59:21.778Z,14
2023-02-27T07:00:28.590Z,18
2023-02-27T07:01:35.474Z,17
2023-02-27T07:02:42.266Z,13
2023-02-27T07:03:49.064Z,17
2023-02-27T07:04:55.953Z,19
2023-02-27T07:06:02.791Z,18
2023-02-27T07:07:33.675Z,13
2023-02-27T07:08:17.534Z,13
2023-02-27T07:09:24.542Z,16
2023-02-27T07:10:31.711Z,16
2023-02-27T07:11:38.547Z,13
2023-02-27T07:12:47.433Z,13
2023-02-27T07:13:54.299Z,13
2023-02-27T07:15:02.255Z,14
2023-02-27T07:16:09.275Z,13
2023-02-27T07:17:16.082Z,13
2023-02-27T07:18:22.944Z,12
2023-02-27T07:19:29.826Z,13
2023-02-27T07:20:37.539Z,15
2023-02-27T07:21:46.047Z,14
2023-02-27T07:22:53.876Z,14
2023-02-27T07:24:00.783Z,15
2023-02-27T07:25:07.723Z,15
2023-02-27T07:26:14.556Z,17
2023-02-27T07:27:21.393Z,17
2023-02-27T07:28:29.055Z,16
2023-02-27T07:29:36.030Z,17
2023-02-27T07:30:43.200Z,19
2023-02-27T07:31:50.354Z,14
2023-02-27T07:32:57.132Z,12
2023-02-27T07:34:04.181Z,13
2023-02-27T07:35:11.188Z,21
2023-02-27T07:36:18.125Z,17
2023-02-27T07:37:26.987Z,15
2023-02-27T07:38:31.889Z,19
2023-02-27T07:39:38.763Z,16
2023-02-27T07:40:45.715Z,19
2023-02-27T07:41:53.308Z,21
2023-02-27T07:43:00.117Z,20
2023-02-27T07:44:06.993Z,19
2023-02-27T07:45:13.831Z,21
2023-02-27T07:46:26.531Z,23
2023-02-27T07:47:33.205Z,20
2023-02-27T07:48:41.073Z,21
2023-02-27T07:49:48.019Z,16
2023-02-27T07:50:55.081Z,13
2023-02-27T07:52:01.925Z,12
2023-02-27T07:53:08.727Z,11
2023-02-27T07:54:15.646Z,12
2023-02-27T07:55:22.626Z,12
2023-02-27T07:56:30.138Z,12
2023-02-27T07:57:39.620Z,13
2023-02-27T07:58:46.442Z,14
2023-02-27T07:59:54.848Z,15
2023-02-27T08:01:01.704Z,14
2023-02-27T08:02:08.655Z,16
2023-02-27T08:03:15.745Z,14
2023-02-27T08:04:22.619Z,16
2023-02-27T08:05:29.398Z,16
2023-02-27T08:06:36.985Z,14
2023-02-27T08:07:44.005Z,15
2023-02-27T08:08:50.806Z,14
2023-02-27T08:09:57.615Z,15
2023-02-27T08:11:05.608Z,15
2023-02-27T08:12:12.391Z,16
2023-02-27T08:13:25.168Z,14
2023-02-27T08:14:26.907Z,13
2023-02-27T08:15:33.840Z,14
2023-02-27T08:16:40.703Z,17
2023-02-27T08:17:47.500Z,16
2023-02-27T08:18:54.334Z,15
2023-02-27T08:20:01.243Z,14
2023-02-27T08:21:08.376Z,14
2023-02-27T08:22:16.556Z,14
2023-02-27T08:23:23.414Z,13
2023-02-27T08:24:30.267Z,14
2023-02-27T08:25:38.133Z,16
2023-02-27T08:26:44.917Z,13
2023-02-27T08:27:51.832Z,15
2023-02-27T08:29:01.322Z,16
2023-02-27T08:30:08.098Z,13
2023-02-27T08:31:16.328Z,15
2023-02-27T08:32:23.223Z,14
2023-02-27T08:33:31.022Z,14
2023-02-27T08:34:37.910Z,17
2023-02-27T08:35:47.789Z,18
2023-02-27T08:36:54.648Z,16
2023-02-27T08:38:01.477Z,18
2023-02-27T08:39:08.299Z,18
2023-02-27T08:40:15.163Z,22
2023-02-27T08:41:24.277Z,21
2023-02-27T08:42:32.135Z,20
2023-02-27T08:43:40.957Z,20
2023-02-27T08:44:49.172Z,18
2023-02-27T08:45:59.216Z,17
2023-02-27T08:47:06.133Z,19
2023-02-27T08:48:14.968Z,23
2023-02-27T08:49:21.862Z,24
2023-02-27T08:50:29.019Z,24
2023-02-27T08:51:37.916Z,28
2023-02-27T08:52:46.383Z,28
2023-02-27T08:53:53.331Z,28
2023-02-27T08:55:00.178Z,27
2023-02-27T08:56:07.117Z,24
2023-02-27T08:57:17.310Z,25
2023-02-27T08:58:24.158Z,28
2023-02-27T08:59:31.068Z,30
2023-02-27T09:00:39.293Z,25
2023-02-27T09:01:48.575Z,26
2023-02-27T09:02:57.882Z,26
2023-02-27T09:04:04.845Z,23
2023-02-27T09:05:11.759Z,21
2023-02-27T09:06:24.557Z,20
2023-02-27T09:07:29.687Z,22
2023-02-27T09:08:36.601Z,22
2023-02-27T09:09:43.542Z,23
2023-02-27T09:10:54.906Z,22
2023-02-27T09:12:01.970Z,22
2023-02-27T09:13:09.028Z,21
2023-02-27T09:14:17.097Z,20
2023-02-27T09:15:24.021Z,19
2023-02-27T09:16:31.913Z,20
2023-02-27T09:17:38.704Z,20
2023-02-27T09:18:48.819Z,19
2023-02-27T09:19:57.374Z,26
2023-02-27T09:21:03.220Z,25
2023-02-27T09:22:10.111Z,24
2023-02-27T09:23:17.755Z,25
2023-02-27T09:24:24.672Z,18
2023-02-27T09:25:31.677Z,20
2023-02-27T09:26:45.136Z,20
2023-02-27T09:27:45.720Z,22
2023-02-27T09:28:52.616Z,19
2023-02-27T09:30:00.133Z,18
2023-02-27T09:31:09.642Z,20
2023-02-27T09:32:16.664Z,22
2023-02-27T09:33:23.589Z,23
2023-02-27T09:34:30.548Z,19
2023-02-27T09:35:37.575Z,20
2023-02-27T09:36:46.905Z,17
2023-02-27T09:37:55.123Z,20
2023-02-27T09:39:04.780Z,19
2023-02-27T09:40:11.912Z,16
2023-02-27T09:41:27.260Z,22
2023-02-27T09:42:44.996Z,22
2023-02-27T09:43:51.831Z,17
2023-02-27T09:44:58.810Z,20
2023-02-27T09:46:05.854Z,20
2023-02-27T09:47:12.797Z,19
2023-02-27T09:48:27.665Z,18
2023-02-27T09:49:37.508Z,22
2023-02-27T09:50:54.788Z,21
2023-02-27T09:52:01.853Z,16
2023-02-27T09:53:08.832Z,17
2023-02-27T09:54:18.708Z,15
2023-02-27T09:55:25.797Z,13
2023-02-27T09:56:33.725Z,12
2023-02-27T09:57:48.421Z,15
2023-02-27T09:59:00.417Z,13
2023-02-27T10:00:17.522Z,13
2023-02-27T10:01:33.241Z,13
2023-02-27T10:02:40.182Z,12
2023-02-27T10:03:47.081Z,10
2023-02-27T10:05:04.406Z,9
2023-02-27T10:06:22.224Z,12
2023-02-27T10:07:34.267Z,13
2023-02-27T10:08:51.396Z,13
2023-02-27T10:10:05.812Z,12
2023-02-27T10:11:22.617Z,12
2023-02-27T10:12:40.470Z,13
2023-02-27T10:13:57.503Z,13
2023-02-27T10:15:07.296Z,11
2023-02-27T10:16:19.382Z,13
2023-02-27T10:17:26.749Z,15
2023-02-27T10:18:33.719Z,17
2023-02-27T10:19:46.701Z,13
2023-02-27T10:20:53.695Z,16
2023-02-27T10:22:03.431Z,14
2023-02-27T10:23:10.353Z,16
2023-02-27T10:24:19.516Z,17
2023-02-27T10:25:32.402Z,16
2023-02-27T10:26:41.415Z,14
2023-02-27T10:27:48.336Z,14
2023-02-27T10:28:57.600Z,15
2023-02-27T10:30:17.332Z,12
2023-02-27T10:31:27.739Z,12
2023-02-27T10:32:35.109Z,11
2023-02-27T10:33:43.577Z,14
2023-02-27T10:34:50.518Z,12
2023-02-27T10:36:01.953Z,11
2023-02-27T10:37:06.672Z,11
2023-02-27T10:38:13.585Z,11
2023-02-27T10:39:20.860Z,12
2023-02-27T10:40:31.657Z,11
2023-02-27T10:41:39.880Z,11
2023-02-27T10:42:45.596Z,12
2023-02-27T10:43:55.729Z,11
2023-02-27T10:45:02.807Z,13
2023-02-27T10:46:10.177Z,15
2023-02-27T10:47:22.875Z,13
2023-02-27T10:48:29.841Z,15
2023-02-27T10:49:36.825Z,15
2023-02-27T10:50:48.090Z,15
2023-02-27T10:51:55.601Z,13
2023-02-27T10:53:08.666Z,14
2023-02-27T10:54:23.797Z,15
2023-02-27T10:55:30.620Z,14
2023-02-27T10:56:41.139Z,15
2023-02-27T10:57:48.127Z,15
2023-02-27T10:58:57.823Z,17
2023-02-27T11:00:07.675Z,16
2023-02-27T11:01:20.006Z,15
2023-02-27T11:02:29.713Z,16
2023-02-27T11:03:43.501Z,15
2023-02-27T11:04:54.404Z,17
2023-02-27T11:06:02.410Z,17
2023-02-27T11:07:09.650Z,16
2023-02-27T11:08:16.558Z,15
2023-02-27T11:09:26.167Z,15
2023-02-27T11:10:33.200Z,10
2023-02-27T11:11:41.009Z,10
2023-02-27T11:12:48.246Z,12
2023-02-27T11:14:05.621Z,12
2023-02-27T11:15:22.754Z,12
2023-02-27T11:16:29.693Z,13
2023-02-27T11:17:36.607Z,12
2023-02-27T11:18:44.742Z,12
2023-02-27T11:19:54.724Z,13
2023-02-27T11:21:01.647Z,11
2023-02-27T11:22:11.744Z,12
2023-02-27T11:23:21.209Z,13
2023-02-27T11:24:28.553Z,16
2023-02-27T11:25:35.989Z,15
2023-02-27T11:26:42.858Z,16
2023-02-27T11:27:57.751Z,14
2023-02-27T11:29:16.265Z,16
2023-02-27T11:30:23.446Z,13
2023-02-27T11:31:33.377Z,11
2023-02-27T11:32:40.275Z,12
2023-02-27T11:33:47.512Z,12
2023-02-27T11:34:54.511Z,11
2023-02-27T11:36:02.639Z,11
2023-02-27T11:37:09.673Z,14
2023-02-27T11:38:26.755Z,12
2023-02-27T11:39:33.799Z,13
2023-02-27T11:40:40.660Z,12
2023-02-27T11:41:55.388Z,13
2023-02-27T11:43:05.124Z,11
2023-02-27T11:44:21.669Z,11
2023-02-27T11:46:03.971Z,11
2023-02-27T11:46:48.201Z,11
2023-02-27T11:47:56.981Z,9
2023-02-27T11:49:01.963Z,9
2023-02-27T11:50:10.087Z,10
2023-02-27T11:51:22.185Z,11
2023-02-27T11:52:39.084Z,11
2023-02-27T11:53:53.621Z,9
2023-02-27T11:55:10.876Z,10
2023-02-27T11:56:17.997Z,9
2023-02-27T11:57:29.154Z,11
2023-02-27T11:58:36.225Z,11
2023-02-27T11:59:50.950Z,13
2023-02-27T12:01:00.954Z,13
2023-02-27T12:02:10.710Z,15
2023-02-27T12:03:25.528Z,18
2023-02-27T12:04:46.763Z,16
2023-02-27T12:05:59.919Z,14
2023-02-27T12:07:07.112Z,14
2023-02-27T12:08:19.229Z,11
2023-02-27T12:09:36.350Z,12
2023-02-27T12:10:48.653Z,14
2023-02-27T12:11:58.128Z,10
2023-02-27T12:13:06.741Z,10
2023-02-27T12:14:22.251Z,9
2023-02-27T12:15:36.936Z,8
2023-02-27T12:16:49.440Z,10
2023-02-27T12:18:04.433Z,11
2023-02-27T12:19:14.413Z,8
2023-02-27T12:20:22.422Z,7
2023-02-27T12:21:35.439Z,6
2023-02-27T12:22:50.060Z,10
2023-02-27T12:23:56.973Z,14
2023-02-27T12:25:12.598Z,9
2023-02-27T12:26:29.337Z,10
2023-02-27T12:27:36.194Z,10
2023-02-27T12:28:48.938Z,9
2023-02-27T12:30:00.896Z,12
2023-02-27T12:31:10.909Z,11
2023-02-27T12:32:27.889Z,11
2023-02-27T12:33:37.860Z,13
2023-02-27T12:34:52.869Z,11
2023-02-27T12:36:00.446Z,11
2023-02-27T12:37:07.754Z,12
2023-02-27T12:38:14.773Z,10
2023-02-27T12:39:23.732Z,12
2023-02-27T12:40:31.597Z,12
2023-02-27T12:41:46.593Z,14
2023-02-27T12:42:59.180Z,15
2023-02-27T12:44:12.915Z,14
2023-02-27T12:45:27.411Z,13
2023-02-27T12:46:44.403Z,14
2023-02-27T12:47:51.369Z,15
2023-02-27T12:49:03.271Z,12
2023-02-27T12:50:15.746Z,14
2023-02-27T12:51:24.034Z,12
2023-02-27T12:52:39.083Z,14
2023-02-27T12:53:53.976Z,14
2023-02-27T12:55:11.806Z,13
2023-02-27T12:56:22.905Z,11
2023-02-27T12:57:30.728Z,14
2023-02-27T12:58:45.494Z,12
2023-02-27T12:59:58.409Z,12
2023-02-27T13:01:12.317Z,10
2023-02-27T13:02:28.015Z,12
2023-02-27T13:03:45.049Z,10
2023-02-27T13:04:57.805Z,10
2023-02-27T13:06:08.049Z,10
2023-02-27T13:07:20.766Z,10
2023-02-27T13:08:27.747Z,12
2023-02-27T13:09:44.855Z,11
2023-02-27T13:11:01.948Z,10
2023-02-27T13:12:13.927Z,10
2023-02-27T13:13:26.454Z,12
2023-02-27T13:14:40.118Z,12
2023-02-27T13:15:52.777Z,16
2023-02-27T13:17:08.606Z,18
2023-02-27T13:18:16.331Z,16
2023-02-27T13:19:29.323Z,13
2023-02-27T13:20:41.307Z,12
2023-02-27T13:21:51.233Z,15
2023-02-27T13:22:59.055Z,13
2023-02-27T13:24:14.013Z,12
2023-02-27T13:25:25.459Z,12
2023-02-27T13:26:34.809Z,12
2023-02-27T13:27:39.820Z,11
2023-02-27T13:28:50.643Z,12
2023-02-27T13:29:57.585Z,13
2023-02-27T13:31:08.422Z,10
2023-02-27T13:32:20.032Z,10
2023-02-27T13:33:28.089Z,12
2023-02-27T13:34:43.346Z,13
2023-02-27T13:35:53.812Z,10
2023-02-27T13:37:10.999Z,11
2023-02-27T13:38:20.895Z,10
2023-02-27T13:39:37.909Z,8
2023-02-27T13:40:47.946Z,6
2023-02-27T13:41:54.859Z,7
2023-02-27T13:43:04.845Z,8
2023-02-27T13:44:22.002Z,8
2023-02-27T13:45:28.926Z,8
2023-02-27T13:46:46.166Z,7
2023-02-27T13:47:54.234Z,7
2023-02-27T13:49:00.112Z,7
2023-02-27T13:50:09.758Z,6
2023-02-27T13:51:21.824Z,8
2023-02-27T13:52:39.700Z,8
2023-02-27T13:53:46.612Z,8
2023-02-27T13:54:59.823Z,8
2023-02-27T13:56:02.777Z,10
2023-02-27T13:57:20.627Z,9
2023-02-27T13:58:28.087Z,9
2023-02-27T13:59:35.816Z,8
2023-02-27T14:00:45.292Z,8
2023-02-27T14:02:01.447Z,9
2023-02-27T14:03:13.569Z,10
2023-02-27T14:04:26.512Z,7
2023-02-27T14:05:36.664Z,7
2023-02-27T14:06:43.606Z,8
2023-02-27T14:07:51.060Z,8
2023-02-27T14:09:08.739Z,8
2023-02-27T14:10:05.034Z,8
2023-02-27T14:11:12.314Z,8
2023-02-27T14:12:19.415Z,8
2023-02-27T14:13:29.047Z,9
2023-02-27T14:14:50.456Z,8
2023-02-27T14:15:57.768Z,9
2023-02-27T14:17:04.726Z,9
2023-02-27T14:18:20.167Z,10
2023-02-27T14:19:29.031Z,8
2023-02-27T14:20:43.770Z,9
2023-02-27T14:21:50.639Z,8
2023-02-27T14:23:03.258Z,8
2023-02-27T14:24:15.488Z,8
2023-02-27T14:25:27.657Z,8
2023-02-27T14:26:38.010Z,8
2023-02-27T14:27:44.946Z,9
2023-02-27T14:28:57.960Z,8
2023-02-27T14:30:05.186Z,9
2023-02-27T14:31:12.767Z,9
2023-02-27T14:32:25.925Z,10
2023-02-27T14:33:40.313Z,10
2023-02-27T14:34:49.072Z,9
2023-02-27T14:35:59.340Z,10
2023-02-27T14:37:06.418Z,10
2023-02-27T14:38:13.429Z,10
2023-02-27T14:39:20.483Z,11
2023-02-27T14:40:35.534Z,10
2023-02-27T14:41:50.169Z,10
2023-02-27T14:43:07.753Z,8
2023-02-27T14:44:20.580Z,8
2023-02-27T14:45:27.652Z,10
2023-02-27T14:46:37.656Z,21
2023-02-27T14:47:44.595Z,25
2023-02-27T14:48:52.587Z,26
2023-02-27T14:50:02.323Z,15
2023-02-27T14:51:11.463Z,17
2023-02-27T14:52:21.359Z,15
2023-02-27T14:53:28.348Z,14
2023-02-27T14:54:35.283Z,13
2023-02-27T14:55:44.214Z,14
2023-02-27T14:56:59.013Z,16
2023-02-27T14:58:06.859Z,16
2023-02-27T14:59:20.050Z,15
2023-02-27T15:00:32.129Z,13
2023-02-27T15:01:44.956Z,17
2023-02-27T15:02:52.125Z,15
2023-02-27T15:04:02.134Z,15
2023-02-27T15:05:09.011Z,16
2023-02-27T15:06:19.090Z,16
2023-02-27T15:07:34.094Z,13
2023-02-27T15:08:41.825Z,13
2023-02-27T15:09:49.538Z,15
2023-02-27T15:10:57.362Z,17
2023-02-27T15:12:04.955Z,14
2023-02-27T15:13:11.329Z,14
2023-02-27T15:14:26.290Z,16
2023-02-27T15:15:33.762Z,15
2023-02-27T15:16:40.732Z,16
2023-02-27T15:17:50.311Z,17
2023-02-27T15:18:57.935Z,16
2023-02-27T15:20:17.818Z,20
2023-02-27T15:21:30.559Z,18
2023-02-27T15:22:39.869Z,20
2023-02-27T15:23:48.244Z,19
2023-02-27T15:25:01.252Z,21
2023-02-27T15:26:11.980Z,21
2023-02-27T15:27:19.078Z,26
2023-02-27T15:28:29.911Z,25
2023-02-27T15:29:36.928Z,32
2023-02-27T15:30:47.516Z,32
2023-02-27T15:31:58.397Z,23
2023-02-27T15:33:12.106Z,23
2023-02-27T15:34:22.995Z,23
2023-02-27T15:35:30.097Z,23
2023-02-27T15:36:40.393Z,21
2023-02-27T15:37:47.499Z,17
2023-02-27T15:39:00.034Z,17
2023-02-27T15:40:15.026Z,18
2023-02-27T15:41:25.155Z,21
2023-02-27T15:42:31.884Z,24
2023-02-27T15:43:43.875Z,21
2023-02-27T15:44:51.298Z,18
2023-02-27T15:45:58.965Z,17
2023-02-27T15:47:08.743Z,15
2023-02-27T15:48:15.828Z,14
2023-02-27T15:49:22.714Z,14
2023-02-27T15:50:29.609Z,14
2023-02-27T15:51:37.060Z,13
2023-02-27T15:52:47.160Z,15
2023-02-27T15:53:59.582Z,12
2023-02-27T15:55:06.829Z,12
2023-02-27T15:56:16.687Z,12
2023-02-27T15:57:26.281Z,13
2023-02-27T15:58:34.680Z,11
2023-02-27T15:59:41.775Z,11
2023-02-27T16:00:48.694Z,11
2023-02-27T16:02:06.306Z,11
2023-02-27T16:03:13.295Z,10
2023-02-27T16:04:23.235Z,11
2023-02-27T16:05:30.199Z,10
2023-02-27T16:06:37.829Z,10
2023-02-27T16:07:45.273Z,12
2023-02-27T16:08:52.579Z,13
2023-02-27T16:10:03.330Z,12
2023-02-27T16:11:10.623Z,10
2023-02-27T16:12:25.104Z,12
2023-02-27T16:13:34.873Z,13
2023-02-27T16:14:41.970Z,13
2023-02-27T16:15:51.852Z,13
2023-02-27T16:17:06.237Z,13
2023-02-27T16:18:23.364Z,12
2023-02-27T16:19:35.993Z,12
2023-02-27T16:20:42.967Z,14
2023-02-27T16:21:50.298Z,12
2023-02-27T16:23:05.402Z,14
2023-02-27T16:24:12.320Z,15
2023-02-27T16:25:23.279Z,13
2023-02-27T16:26:30.926Z,14
2023-02-27T16:27:37.347Z,16
2023-02-27T16:28:47.080Z,16
2023-02-27T16:30:01.897Z,13
2023-02-27T16:31:09.099Z,13
2023-02-27T16:32:21.196Z,14
2023-02-27T16:33:33.192Z,15
2023-02-27T16:34:46.784Z,14
2023-02-27T16:35:47.042Z,15
2023-02-27T16:36:56.799Z,15
2023-02-27T16:38:06.675Z,18
2023-02-27T16:39:13.577Z,16